Weather History for KLAM - March, 2013

Change the Weather History Date:

Saturday, March 23, 2013

  Actual Average Record
Temperature  
Mean Temperature 36 °F -  
Max Temperature 46 °F 53 °F 75 °F (1998)
Min Temperature 26 °F 28 °F 6 °F (1952)
Degree Days  
Heating Degree Days 29    
Moisture  
Dew Point -7 °F    
Average Humidity 17    
Maximum Humidity 41    
Minimum Humidity 11    
Precipitation  
Precipitation 0.00 in - - ()
Sea Level Pressure  
Sea Level Pressure 29.85 in    
Wind  
Wind Speed 13 mph (West)    
Max Wind Speed 30 mph    
Max Gust Speed 46 mph    
Visibility 10 miles    
Events      
Averages and records for this station are not official NWS values.
T = Trace of Precipitation, MM = Missing Value Source: NWS Daily Summary

Daily Weather History Graph

Daily Weather History Graph

Search for Another Location

Airport or City:

Trip Planner

Search our weather history database for the weather conditions in past years. The results will help you decide how hot, cold, wet, or windy it might be!

Date:

Astronomy

Mar. 23, 2013 Rise Set
Actual Time 7:03 AM MDT 7:19 PM MDT
Civil Twilight 6:38 AM MDT 7:45 PM MDT
Nautical Twilight 6:08 AM MDT 8:15 PM MDT
Astronomical Twilight 5:38 AM MDT 8:45 PM MDT
Moon 3:55 PM MDT (3/23) 4:35 AM MDT (3/23)
Length of Visible Light 13h 06m
Length of Day
12h 15m
Waxing Gibbous, 85% of the Moon is Illuminated
Mar 23
Waxing Gibbous
Mar 27
Full
Apr 2
Last Quarter
Apr 10
New
Apr 18
First Quarter

Hourly Weather History & Observations

Time (MDT) Temp. Windchill Dew Point Humidity Pressure Visibility Wind Dir Wind Speed Gust Speed Precip Events Conditions
12:15 AM 43.7 °F 37.3 °F 21.6 °F 41% 29.75 in 10.0 mi South 12.7 mph 21.9 mph N/A   Clear
12:35 AM 46.8 °F - 17.1 °F 31% 29.75 in 10.0 mi SSW 11.5 mph 21.9 mph N/A   Clear
12:55 AM 46.0 °F 38.8 °F 16.7 °F 31% 29.75 in 10.0 mi SW 18.4 mph 26.5 mph N/A   Clear
1:15 AM 45.5 °F 39.2 °F 14.2 °F 28% 29.74 in 10.0 mi WSW 13.8 mph 27.6 mph N/A   Clear
1:35 AM 45.5 °F 39.6 °F 6.1 °F 20% 29.75 in 10.0 mi WSW 12.7 mph 25.3 mph N/A   Clear
2:15 AM 43.7 °F 36.6 °F 2.5 °F 18% 29.75 in 10.0 mi WSW 15.0 mph 20.7 mph N/A   Clear
2:35 AM 42.8 °F 38.0 °F 1.4 °F 18% 29.75 in 10.0 mi WSW 8.1 mph - N/A   Clear
2:55 AM 42.1 °F 36.6 °F -2.2 °F 16% 29.76 in 10.0 mi WSW 9.2 mph - N/A   Clear
3:15 AM 41.0 °F 36.4 °F -3.5 °F 15% 29.76 in 10.0 mi West 6.9 mph - N/A   Clear
3:35 AM 41.0 °F 36.4 °F -4.7 °F 14% 29.76 in 10.0 mi West 6.9 mph 17.3 mph N/A   Clear
3:55 AM 39.6 °F 35.4 °F -5.8 °F 15% 29.76 in 10.0 mi NW 5.8 mph - N/A   Clear
4:15 AM 39.9 °F 37.8 °F -7.6 °F 13% 29.75 in 10.0 mi NW 3.5 mph - N/A   Clear
4:35 AM 39.6 °F 35.4 °F -8.3 °F 13% 29.75 in 10.0 mi West 5.8 mph - N/A   Clear
4:55 AM 39.2 °F 33.6 °F -9.2 °F 13% 29.74 in 10.0 mi SSW 8.1 mph 16.1 mph N/A   Clear
5:15 AM 38.3 °F 33.2 °F -8.1 °F 14% 29.74 in 10.0 mi SSE 6.9 mph - N/A   Clear
5:35 AM 36.7 °F 31.2 °F -7.4 °F 15% 29.74 in 10.0 mi South 6.9 mph - N/A   Clear
5:55 AM 36.7 °F 31.2 °F -7.4 °F 15% 29.74 in 10.0 mi South 6.9 mph - N/A   Clear
6:15 AM 36.5 °F 31.8 °F -5.3 °F 17% 29.74 in 10.0 mi SW 5.8 mph - N/A   Clear
6:35 AM 36.3 °F 31.6 °F -4.0 °F 18% 29.74 in 10.0 mi SW 5.8 mph - N/A   Clear
7:15 AM 34.7 °F 26.9 °F -1.5 °F 21% 29.76 in 10.0 mi WNW 10.4 mph - N/A   Clear
7:35 AM 34.9 °F 27.1 °F -0.2 °F 23% 29.76 in 10.0 mi WNW 10.4 mph 24.2 mph N/A   Clear
7:55 AM 34.7 °F 27.5 °F 1.2 °F 24% 29.78 in 10.0 mi WNW 9.2 mph - N/A   Clear
8:15 AM 34.7 °F 26.9 °F 1.2 °F 24% 29.78 in 10.0 mi WSW 10.4 mph 18.4 mph N/A   Clear
8:35 AM 35.6 °F 29.9 °F -1.5 °F 21% 29.78 in 10.0 mi WSW 6.9 mph - N/A   Clear
8:55 AM 36.7 °F 32.0 °F -2.6 °F 19% 29.78 in 10.0 mi West 5.8 mph 16.1 mph N/A   Clear
9:15 AM 37.4 °F 32.1 °F -4.0 °F 17% 29.79 in 10.0 mi West 6.9 mph - N/A   Clear
9:35 AM 37.9 °F 30.5 °F -6.0 °F 15% 29.78 in 10.0 mi WSW 11.5 mph - N/A   Clear
9:55 AM 36.9 °F 29.6 °F -4.9 °F 17% 29.77 in 10.0 mi WNW 10.4 mph 21.9 mph N/A   Clear
10:15 AM 37.6 °F 30.0 °F -6.0 °F 16% 29.77 in 10.0 mi West 11.5 mph 17.3 mph N/A   Clear
10:35 AM 36.7 °F 28.4 °F -6.3 °F 16% 29.77 in 10.0 mi West 12.7 mph 23.0 mph N/A   Clear
10:55 AM 36.3 °F 27.1 °F -4.0 °F 18% 29.78 in 10.0 mi West 15.0 mph 25.3 mph N/A   Clear
11:15 AM 35.2 °F 27.6 °F -5.6 °F 17% 29.79 in 10.0 mi WNW 10.4 mph 29.9 mph N/A   Clear
11:35 AM 32.5 °F 19.9 °F -2.7 °F 22% 29.79 in 10.0 mi NW 23.0 mph 34.5 mph N/A   Clear
11:55 AM 31.8 °F 21.4 °F -4.9 °F 21% 29.81 in 10.0 mi WNW 15.0 mph 33.4 mph N/A   Clear
12:15 PM 31.5 °F 21.4 °F -6.5 °F 19% 29.82 in 10.0 mi WNW 13.8 mph 32.2 mph N/A   Clear
12:35 PM 32.2 °F 17.9 °F -6.7 °F 19% 29.83 in 10.0 mi West 29.9 mph 44.9 mph N/A   Clear
12:55 PM 32.0 °F 19.2 °F -13.5 °F 14% 29.83 in 10.0 mi West 23.0 mph 41.4 mph N/A   Clear
1:15 PM 31.1 °F 16.9 °F -13.5 °F 14% 29.84 in 10.0 mi WNW 27.6 mph 40.3 mph N/A   Scattered Clouds
1:35 PM 31.1 °F 18.3 °F -15.3 °F 13% 29.85 in 10.0 mi WNW 21.9 mph 40.3 mph N/A   Scattered Clouds
1:55 PM 32.0 °F 18.1 °F -15.3 °F 12% 29.85 in 10.0 mi West 27.6 mph 40.3 mph N/A   Scattered Clouds
2:15 PM 31.8 °F 19.9 °F -16.2 °F 12% 29.85 in - WNW 19.6 mph 38.0 mph N/A   Overcast
2:35 PM 31.8 °F 18.4 °F -14.8 °F 13% 29.85 in 10.0 mi WNW 25.3 mph 34.5 mph N/A   Overcast
2:55 PM 31.3 °F 17.1 °F -12.6 °F 15% 29.85 in 10.0 mi West 27.6 mph 41.4 mph N/A   Mostly Cloudy
3:15 PM 30.7 °F 17.5 °F -18.9 °F 11% 29.85 in 10.0 mi WNW 23.0 mph 43.7 mph N/A   Scattered Clouds
3:35 PM 30.6 °F 19.0 °F -15.9 °F 13% 29.86 in 10.0 mi West 17.3 mph 46.0 mph N/A   Scattered Clouds
3:55 PM 31.8 °F 18.7 °F -15.5 °F 12% 29.86 in 10.0 mi WNW 24.2 mph 35.7 mph N/A   Scattered Clouds
4:15 PM 32.0 °F 19.8 °F -11.9 °F 15% 29.86 in 10.0 mi West 20.7 mph 34.5 mph N/A   Mostly Cloudy
4:35 PM 31.3 °F 17.9 °F -10.5 °F 16% 29.88 in 10.0 mi WNW 24.2 mph 34.5 mph N/A   Scattered Clouds
4:55 PM 31.5 °F 19.1 °F -14.3 °F 13% 29.88 in 10.0 mi NW 20.7 mph 40.3 mph N/A   Scattered Clouds
5:15 PM 30.9 °F 19.4 °F -13.0 °F 15% 29.89 in 10.0 mi NW 17.3 mph 39.1 mph N/A   Scattered Clouds
5:35 PM 29.7 °F 15.8 °F -11.2 °F 17% 29.91 in 10.0 mi NW 24.2 mph 33.4 mph N/A   Scattered Clouds
5:55 PM 30.9 °F 21.2 °F -10.3 °F 17% 29.91 in 10.0 mi NW 12.7 mph 28.8 mph N/A   Scattered Clouds
6:15 PM 31.1 °F 20.5 °F -13.0 °F 14% 29.91 in 10.0 mi North 15.0 mph 23.0 mph N/A   Scattered Clouds
6:35 PM 30.7 °F 18.5 °F -14.8 °F 13% 29.93 in 10.0 mi NW 19.6 mph 29.9 mph N/A   Scattered Clouds
6:55 PM 30.0 °F 18.7 °F -15.0 °F 14% 29.95 in 10.0 mi WNW 16.1 mph 27.6 mph N/A   Clear
7:15 PM 29.7 °F 19.1 °F -15.3 °F 14% 29.96 in - WNW 13.8 mph 25.3 mph N/A   Clear
7:35 PM 29.3 °F 17.7 °F -13.0 °F 15% 29.97 in - WNW 16.1 mph 28.8 mph N/A   Clear
7:55 PM 29.1 °F 20.0 °F -11.2 °F 17% 29.99 in - WNW 10.4 mph 24.2 mph N/A   Clear
8:15 PM 28.9 °F 19.2 °F -11.2 °F 17% 29.99 in - West 11.5 mph 16.1 mph N/A   Clear
8:35 PM 28.8 °F 21.7 °F -11.2 °F 17% 30.00 in - WNW 6.9 mph - N/A   Clear
8:55 PM 28.8 °F 19.0 °F -11.7 °F 17% 30.00 in - WNW 11.5 mph - N/A   Clear
9:15 PM 28.8 °F 18.4 °F -13.4 °F 16% 30.01 in - WNW 12.7 mph 17.3 mph N/A   Clear
9:35 PM 28.4 °F 19.1 °F -14.1 °F 15% 30.02 in - WNW 10.4 mph 18.4 mph N/A   Clear
9:55 PM 28.2 °F 19.5 °F -14.1 °F 15% 30.04 in - WNW 9.2 mph - N/A   Clear
10:15 PM 27.5 °F 18.0 °F -13.4 °F 16% 30.05 in - WNW 10.4 mph - N/A   Clear
10:35 PM 27.3 °F 16.1 °F -11.9 °F 18% 30.04 in - WNW 13.8 mph 19.6 mph N/A   Clear
10:55 PM 27.3 °F 18.4 °F -11.2 °F 18% 30.05 in - NW 9.2 mph 17.3 mph N/A   Clear
11:15 PM 26.8 °F 18.5 °F -11.2 °F 19% 30.04 in 10.0 mi NNW 8.1 mph - N/A   Clear
11:35 PM 27.0 °F 18.0 °F -11.2 °F 19% 30.04 in 10.0 mi NNW 9.2 mph 18.4 mph N/A   Clear
11:55 PM 27.1 °F 17.5 °F -10.3 °F 19% 30.04 in 10.0 mi NNW 10.4 mph 17.3 mph N/A   Clear